createdAt,value
2016-06-08T11:40:25.936Z,43.16
2016-06-08T11:41:25.940Z,42.86
2016-06-08T11:42:25.957Z,42.86
2016-06-08T11:43:25.960Z,42.86
2016-06-08T11:44:26.962Z,43.06
2016-06-08T11:45:25.981Z,42.77
2016-06-08T11:46:26.828Z,42.67
2016-06-08T11:47:25.987Z,42.77
2016-06-08T11:48:26.005Z,43.06
2016-06-08T11:49:26.008Z,42.77
2016-06-08T11:50:27.603Z,42.86
2016-06-08T11:51:26.044Z,43.16
2016-06-08T11:52:26.031Z,42.77
2016-06-08T11:53:26.033Z,43.06
2016-06-08T11:54:26.036Z,43.16
2016-06-08T11:55:26.821Z,43.45
2016-06-08T11:56:26.057Z,43.16
2016-06-08T11:57:26.467Z,43.13
2016-06-08T11:58:26.079Z,42.96
2016-06-08T11:59:25.924Z,42.94
2016-06-08T12:00:31.896Z,43.04
2016-06-08T12:01:26.102Z,43.23
2016-06-08T12:02:26.745Z,43.23
2016-06-08T12:03:26.718Z,42.75
2016-06-08T12:04:25.970Z,42.75
2016-06-08T12:05:26.128Z,43.16
2016-06-08T12:06:36.290Z,43.23
2016-06-08T12:07:26.149Z,42.94
2016-06-08T12:08:25.996Z,43.35
2016-06-08T12:09:29.499Z,42.96
2016-06-08T12:10:26.157Z,42.96
2016-06-08T12:11:26.176Z,43.04
2016-06-08T12:12:26.195Z,43.26
2016-06-08T12:13:26.978Z,43.16
2016-06-08T12:14:26.200Z,43.35
2016-06-08T12:15:26.093Z,43.35
2016-06-08T12:16:26.205Z,42.86
2016-06-08T12:17:27.020Z,43.64
2016-06-08T12:18:26.242Z,43.06
2016-06-08T12:19:26.228Z,43.35
2016-06-08T12:20:26.231Z,43.64
2016-06-08T12:21:26.093Z,43.45
2016-06-08T12:22:26.096Z,43.45
2016-06-08T12:23:26.271Z,43.26
2016-06-08T12:24:26.117Z,43.16
2016-06-08T12:25:26.276Z,43.16
2016-06-08T12:26:26.294Z,43.35
2016-06-08T12:27:26.344Z,43.06
2016-06-08T12:28:26.753Z,43.16
2016-06-08T12:29:26.319Z,43.64
2016-06-08T12:30:26.321Z,44.32
2016-06-08T12:31:26.323Z,43.64
2016-06-08T12:32:27.342Z,44.13
2016-06-08T12:33:26.344Z,44.13
2016-06-08T12:34:26.347Z,43.54
2016-06-08T12:35:26.349Z,43.64
2016-06-08T12:36:26.368Z,43.35
2016-06-08T12:37:26.371Z,43.74
2016-06-08T12:38:26.373Z,43.35
2016-06-08T12:39:26.392Z,43.16
2016-06-08T12:40:26.426Z,43.06
2016-06-08T12:41:26.865Z,43.06
2016-06-08T12:42:26.431Z,43.35
2016-06-08T12:43:26.418Z,43.06
2016-06-08T12:44:26.437Z,43.54
2016-06-08T12:45:26.439Z,43.74
2016-06-08T12:46:26.442Z,44.51
2016-06-08T12:47:26.461Z,43.93
2016-06-08T12:48:26.463Z,44.32
2016-06-08T12:49:26.481Z,44.42
2016-06-08T12:50:26.469Z,44.42
2016-06-08T12:51:26.486Z,44.03
2016-06-08T12:52:26.536Z,44.03
2016-06-08T12:53:26.492Z,42.86
2016-06-08T12:54:27.338Z,42.29
2016-06-08T12:55:26.513Z,42.38
2016-06-08T12:56:26.531Z,42.38
2016-06-08T12:57:26.518Z,42.67
2016-06-08T12:58:26.537Z,41.41
2016-06-08T12:59:26.383Z,41.31
2016-06-08T13:00:26.574Z,41.31
2016-06-08T13:01:26.561Z,40.05
2016-06-08T13:02:26.563Z,40.25
2016-06-08T13:03:26.582Z,40.34
2016-06-08T13:04:26.584Z,40.25
2016-06-08T13:05:27.149Z,39.95
2016-06-08T13:06:26.605Z,38.6
2016-06-08T13:07:26.607Z,37.53
2016-06-08T13:08:26.610Z,37.82
2016-06-08T13:09:26.612Z,37.82
2016-06-08T13:10:26.615Z,37.05
2016-06-08T13:11:26.635Z,37.05
2016-06-08T13:12:26.637Z,38.6
2016-06-08T13:13:26.655Z,38.21
2016-06-08T13:14:28.408Z,38.12
2016-06-08T13:15:26.661Z,38.5
2016-06-08T13:16:27.164Z,37.23
2016-06-08T13:17:26.728Z,38.12
2016-06-08T13:18:26.700Z,39.37
2016-06-08T13:19:26.702Z,39.08
2016-06-08T13:20:26.705Z,38.4
2016-06-08T13:21:26.724Z,38.6
2016-06-08T13:22:26.726Z,38.5
2016-06-08T13:23:26.728Z,38.12
2016-06-08T13:24:26.731Z,37.92
2016-06-08T13:25:26.750Z,38.09
2016-06-08T13:26:26.753Z,38.4
2016-06-08T13:27:27.802Z,37.23
2016-06-08T13:28:26.789Z,37.43
2016-06-08T13:29:26.777Z,37.03
2016-06-08T13:30:26.779Z,38.12
2016-06-08T13:31:26.797Z,38
2016-06-08T13:32:26.800Z,37.9
2016-06-08T13:33:26.802Z,38.09
2016-06-08T13:34:26.805Z,38.29
2016-06-08T13:35:26.824Z,38.87
2016-06-08T13:36:27.780Z,38.87
2016-06-08T13:37:26.829Z,39.16
2016-06-08T13:38:27.393Z,39.45
2016-06-08T13:39:26.850Z,38.96
2016-06-08T13:40:26.854Z,39.16
2016-06-08T13:41:26.871Z,38.68
2016-06-08T13:42:26.874Z,38.78
2016-06-08T13:43:26.876Z,38.87
2016-06-08T13:44:26.895Z,38.58
2016-06-08T13:45:27.320Z,38.48
2016-06-08T13:46:26.901Z,38.19
2016-06-08T13:47:27.762Z,37.9
2016-06-08T13:48:26.921Z,37.71
2016-06-08T13:49:27.378Z,38.09
2016-06-08T13:50:26.942Z,36.83
2016-06-08T13:51:26.945Z,37.23
2016-06-08T13:52:26.947Z,36.93
2016-06-08T13:53:26.966Z,36.64
2016-06-08T13:54:26.969Z,36.54
2016-06-08T13:55:26.971Z,36.82
2016-06-08T13:56:26.975Z,36.54
2016-06-08T13:57:26.992Z,37.03
2016-06-08T13:58:27.635Z,37.32
2016-06-08T13:59:26.998Z,37.69
2016-06-08T14:00:27.282Z,37.69
2016-06-08T14:01:27.019Z,37.9
2016-06-08T14:02:27.021Z,37.61
2016-06-08T14:03:27.024Z,37.41
2016-06-08T14:04:27.043Z,37.51
2016-06-08T14:05:27.061Z,37.61
2016-06-08T14:06:27.048Z,37.71
2016-06-08T14:07:27.066Z,37.9
2016-06-08T14:08:27.069Z,38
2016-06-08T14:09:27.477Z,37.9
2016-06-08T14:10:27.073Z,37.71
2016-06-08T14:11:27.093Z,37.41
2016-06-08T14:12:27.095Z,37.32
2016-06-08T14:13:27.170Z,37.81
2016-06-08T14:14:27.347Z,37.71
2016-06-08T14:15:27.790Z,37.13
2016-06-08T14:16:27.718Z,37.03
2016-06-08T14:17:27.943Z,37.23
2016-06-08T14:18:28.028Z,37.61
2016-06-08T14:19:28.094Z,37.81
2016-06-08T14:20:28.427Z,38
2016-06-08T14:21:30.023Z,37.71
2016-06-08T14:22:28.308Z,38
2016-06-08T14:23:28.358Z,37.81
2016-06-08T14:24:28.400Z,38.19
2016-06-08T14:25:28.426Z,38.09
2016-06-08T14:26:28.451Z,38
2016-06-08T14:27:28.492Z,38
2016-06-08T14:28:28.511Z,37.81
2016-06-08T14:29:28.522Z,38.09
2016-06-08T14:30:28.533Z,37.9
2016-06-08T14:31:28.561Z,38.09
2016-06-08T14:32:28.572Z,37.98
2016-06-08T14:33:28.581Z,37.9
2016-06-08T14:34:28.588Z,36.54
2016-06-08T14:35:28.610Z,36.74
2016-06-08T14:36:28.661Z,36.83
2016-06-08T14:37:28.636Z,36.83
2016-06-08T14:38:28.642Z,36.54
2016-06-08T14:39:28.646Z,36.82
2016-06-08T14:40:28.650Z,36.43
2016-06-08T14:41:28.654Z,36.62
2016-06-08T14:42:28.659Z,36.52
2016-06-08T14:43:28.663Z,36.82
2016-06-08T14:44:29.760Z,37.11
2016-06-08T14:45:28.686Z,36.91
2016-06-08T14:46:28.689Z,36.72
2016-06-08T14:47:28.708Z,36.82
2016-06-08T14:48:28.696Z,37.21
2016-06-08T14:49:28.699Z,36.72
2016-06-08T14:50:28.717Z,37.3
2016-06-08T14:51:28.720Z,37.21
2016-06-08T14:52:28.723Z,37.49
2016-06-08T14:53:28.742Z,37.59
2016-06-08T14:54:28.745Z,37.21
2016-06-08T14:55:29.545Z,37.11
2016-06-08T14:56:28.751Z,37.32
2016-06-08T14:57:28.755Z,37.41
2016-06-08T14:58:28.758Z,37.23
2016-06-08T14:59:28.776Z,36.83
2016-06-08T15:00:28.780Z,37.03
2016-06-08T15:01:28.783Z,36.43
2016-06-08T15:02:28.786Z,36.54
2016-06-08T15:03:28.789Z,36.72
2016-06-08T15:04:29.635Z,36.43
2016-06-08T15:05:28.810Z,36.33
2016-06-08T15:06:29.266Z,36.43
2016-06-08T15:07:28.816Z,36.52
2016-06-08T15:08:28.835Z,36.04
2016-06-08T15:09:28.683Z,35.85
2016-06-08T15:10:28.842Z,35.93
2016-06-08T15:11:28.844Z,35.73
2016-06-08T15:12:28.847Z,35.85
2016-06-08T15:13:28.866Z,35.94
2016-06-08T15:14:28.870Z,36.43
2016-06-08T15:15:29.341Z,36.32
2016-06-08T15:16:28.876Z,36.24
2016-06-08T15:17:29.035Z,35.94
2016-06-08T15:18:28.882Z,36.52
2016-06-08T15:19:28.947Z,36.33
2016-06-08T15:20:28.903Z,36.24
2016-06-08T15:21:28.906Z,36.24
2016-06-08T15:22:28.909Z,35.75
2016-06-08T15:23:28.912Z,35.56
2016-06-08T15:24:28.916Z,35.27
2016-06-08T15:25:28.934Z,35.25
2016-06-08T15:26:30.047Z,35.54
2016-06-08T15:27:28.940Z,35.83
2016-06-08T15:28:28.944Z,35.83
2016-06-08T15:29:28.946Z,35.54
2016-06-08T15:30:28.965Z,35.64
2016-06-08T15:31:29.484Z,35.75
2016-06-08T15:32:28.971Z,35.46
2016-06-08T15:33:28.974Z,36.33
2016-06-08T15:34:28.977Z,35.85
2016-06-08T15:35:28.980Z,35.75
2016-06-08T15:36:28.984Z,35.75
2016-06-08T15:37:30.003Z,35.66
2016-06-08T15:38:29.006Z,35.85
2016-06-08T15:39:29.009Z,36.43
2016-06-08T15:40:29.012Z,36.33
2016-06-08T15:41:29.031Z,35.64
2016-06-08T15:42:29.034Z,36.14
2016-06-08T15:43:29.037Z,35.85
2016-06-08T15:44:29.040Z,36.22
2016-06-08T15:45:29.324Z,36.43
2016-06-08T15:46:30.358Z,35.85
2016-06-08T15:47:29.064Z,35.94
2016-06-08T15:48:29.567Z,35.94
2016-06-08T15:49:29.070Z,36.24
2016-06-08T15:50:29.074Z,36.52
2016-06-08T15:51:29.093Z,36.51
2016-06-08T15:52:29.080Z,36.6
2016-06-08T15:53:29.098Z,36.62
2016-06-08T15:54:29.102Z,37.19
2016-06-08T15:55:29.105Z,36.99
2016-06-08T15:56:29.108Z,36.8
2016-06-08T15:57:29.111Z,36.99
2016-06-08T15:58:29.145Z,37.28
2016-06-08T15:59:29.476Z,36.7
2016-06-08T16:00:29.386Z,36.9
2016-06-08T16:01:29.139Z,37.09
2016-06-08T16:02:29.142Z,37.19
2016-06-08T16:03:29.145Z,36.99
2016-06-08T16:04:29.164Z,37.57
2016-06-08T16:05:29.167Z,37.77
2016-06-08T16:06:29.170Z,37.77
2016-06-08T16:07:29.172Z,37.87
2016-06-08T16:08:29.192Z,37.87
2016-06-08T16:09:29.210Z,38.06
2016-06-08T16:10:29.198Z,37.96
2016-06-08T16:11:29.045Z,37.96
2016-06-08T16:12:29.985Z,37.67
2016-06-08T16:13:29.207Z,37.67
2016-06-08T16:14:29.226Z,37.96
2016-06-08T16:15:29.994Z,38.06
2016-06-08T16:16:29.560Z,38.33
2016-06-08T16:17:29.235Z,38.04
2016-06-08T16:18:29.300Z,38.35
2016-06-08T16:19:29.240Z,38.15
2016-06-08T16:20:29.103Z,38.06
2016-06-08T16:21:29.263Z,38.35
2016-06-08T16:22:29.266Z,38.45
2016-06-08T16:23:29.957Z,38.35
2016-06-08T16:24:29.272Z,38.45
2016-06-08T16:25:29.291Z,38.15
2016-06-08T16:26:29.294Z,38.35
2016-06-08T16:27:29.297Z,38.25
2016-06-08T16:28:29.300Z,38.15
2016-06-08T16:29:29.303Z,38.35
2016-06-08T16:30:29.478Z,38.83
2016-06-08T16:31:29.309Z,38.81
2016-06-08T16:32:29.327Z,38.54
2016-06-08T16:33:29.315Z,38.64
2016-06-08T16:34:30.256Z,38.83
2016-06-08T16:35:29.337Z,38.71
2016-06-08T16:36:29.339Z,38.81
2016-06-08T16:37:29.359Z,38.54
2016-06-08T16:38:29.346Z,38.25
2016-06-08T16:39:29.365Z,38.54
2016-06-08T16:40:29.352Z,38.45
2016-06-08T16:41:29.372Z,38.35
2016-06-08T16:42:29.406Z,38.54
2016-06-08T16:43:30.533Z,38.45
2016-06-08T16:44:29.381Z,38.45
2016-06-08T16:45:30.134Z,38.54
2016-06-08T16:46:29.402Z,38.83
2016-06-08T16:47:29.406Z,38.54
2016-06-08T16:48:29.409Z,38.64
2016-06-08T16:49:29.412Z,38.25
2016-06-08T16:50:29.415Z,38.45
2016-06-08T16:51:29.418Z,38.25
2016-06-08T16:52:29.436Z,38.15
2016-06-08T16:53:29.439Z,38.46
2016-06-08T16:54:30.145Z,38.83
2016-06-08T16:55:29.445Z,38.54
2016-06-08T16:56:29.745Z,38.25
2016-06-08T16:57:29.468Z,38.06
2016-06-08T16:58:29.470Z,37.77
2016-06-08T16:59:29.474Z,38.15
2016-06-08T17:00:29.851Z,38.35
2016-06-08T17:01:30.245Z,38.06
2016-06-08T17:02:29.497Z,37.57
2016-06-08T17:03:29.486Z,37.67
2016-06-08T17:04:29.504Z,37.96
2016-06-08T17:05:29.945Z,37.96
2016-06-08T17:06:29.510Z,37.67
2016-06-08T17:07:29.670Z,37.69
2016-06-08T17:08:29.533Z,37.38
2016-06-08T17:09:29.535Z,37.77
2016-06-08T17:10:29.569Z,37.67
2016-06-08T17:11:29.401Z,37.77
2016-06-08T17:12:29.544Z,37.87
2016-06-08T17:13:29.392Z,37.87
2016-06-08T17:14:29.566Z,38.06
2016-06-08T17:15:29.570Z,37.87
2016-06-08T17:16:30.276Z,37.77
2016-06-08T17:17:29.576Z,37.77
2016-06-08T17:18:30.079Z,37.87
2016-06-08T17:19:29.582Z,37.77
2016-06-08T17:20:29.600Z,37.67
2016-06-08T17:21:29.603Z,37.87
2016-06-08T17:22:29.607Z,37.67
2016-06-08T17:23:29.672Z,37.87
2016-06-08T17:24:29.629Z,37.67
2016-06-08T17:25:29.616Z,37.96
2016-06-08T17:26:29.634Z,38.35
2016-06-08T17:27:30.435Z,38.25
2016-06-08T17:28:29.640Z,38.35
2016-06-08T17:29:30.050Z,38.35
2016-06-08T17:30:29.663Z,38.25
2016-06-08T17:31:30.009Z,38.15
2016-06-08T17:32:29.528Z,38.25
2016-06-08T17:33:29.672Z,38.45
2016-06-08T17:34:29.707Z,38.35
2016-06-08T17:35:29.693Z,38.25
2016-06-08T17:36:29.697Z,38.33
2016-06-08T17:37:29.543Z,37.67
2016-06-08T17:38:30.516Z,37.96
2016-06-08T17:39:29.721Z,37.85
2016-06-08T17:40:30.114Z,37.96
2016-06-08T17:41:29.728Z,38.15
2016-06-08T17:42:29.731Z,38.06
2016-06-08T17:43:29.734Z,38.06
2016-06-08T17:44:29.737Z,38.06
2016-06-08T17:45:29.740Z,37.87
2016-06-08T17:46:29.743Z,37.87
2016-06-08T17:47:29.747Z,38.06
2016-06-08T17:48:29.764Z,37.87
2016-06-08T17:49:30.346Z,37.96
2016-06-08T17:50:29.803Z,37.87
2016-06-08T17:51:30.023Z,37.77
2016-06-08T17:52:29.777Z,37.57
2016-06-08T17:53:29.796Z,37.87
2016-06-08T17:54:29.814Z,37.96
2016-06-08T17:55:29.833Z,37.96
2016-06-08T17:56:29.805Z,37.38
2016-06-08T17:57:29.808Z,37.96
2016-06-08T17:58:29.826Z,38.25
2016-06-08T17:59:29.814Z,37.96
2016-06-08T18:00:30.270Z,38.35
2016-06-08T18:01:29.976Z,38.06
2016-06-08T18:02:29.932Z,38.45
2016-06-08T18:03:29.858Z,38.23
2016-06-08T18:04:29.845Z,38.53
2016-06-08T18:05:29.863Z,38.25
2016-06-08T18:06:29.867Z,38.64
2016-06-08T18:07:29.869Z,38.54
2016-06-08T18:08:29.872Z,38.83
2016-06-08T18:09:29.892Z,38.93
2016-06-08T18:10:29.879Z,39.11
2016-06-08T18:11:30.148Z,39.88
2016-06-08T18:12:29.901Z,40.17
2016-06-08T18:13:29.905Z,39.78
2016-06-08T18:14:29.907Z,40.36
2016-06-08T18:15:29.910Z,40.26
2016-06-08T18:16:30.819Z,41.04
2016-06-08T18:17:29.916Z,41.14
2016-06-08T18:18:29.920Z,41.72
2016-06-08T18:19:29.938Z,41.52
2016-06-08T18:20:29.987Z,42.3
2016-06-08T18:21:29.945Z,42.4
2016-06-08T18:22:30.244Z,41.52
2016-06-08T18:23:29.794Z,42.3
2016-06-08T18:24:29.969Z,42.4
2016-06-08T18:25:29.972Z,43.07
2016-06-08T18:26:29.975Z,42.59
2016-06-08T18:27:29.978Z,42.88
2016-06-08T18:28:29.982Z,42.88
2016-06-08T18:29:30.000Z,43.27
2016-06-08T18:30:29.987Z,43.27
2016-06-08T18:31:30.006Z,42.88
2016-06-08T18:32:29.900Z,43.27
2016-06-08T18:33:30.121Z,43.17
2016-06-08T18:34:30.016Z,43.75
2016-06-08T18:35:29.863Z,43.63
2016-06-08T18:36:30.022Z,43.34
2016-06-08T18:37:30.025Z,43.27
2016-06-08T18:38:30.043Z,42.97
2016-06-08T18:39:30.031Z,42.68
2016-06-08T18:40:30.034Z,42.88
2016-06-08T18:41:30.052Z,43.27
2016-06-08T18:42:30.055Z,43.75
2016-06-08T18:43:30.074Z,43.55
2016-06-08T18:44:30.374Z,43.37
2016-06-08T18:45:30.065Z,43.75
2016-06-08T18:46:30.067Z,43.46
2016-06-08T18:47:30.539Z,44.13
2016-06-08T18:48:29.934Z,44.02
2016-06-08T18:49:30.092Z,44.12
2016-06-08T18:50:30.111Z,43.92
2016-06-08T18:51:30.099Z,44.04
2016-06-08T18:52:30.102Z,44.02
2016-06-08T18:53:30.105Z,43.95
2016-06-08T18:54:30.124Z,44.4
2016-06-08T18:55:30.378Z,44.5
2016-06-08T18:56:30.130Z,44.6
2016-06-08T18:57:30.134Z,44.7
2016-06-08T18:58:30.136Z,44.79
2016-06-08T18:59:30.139Z,45.08
2016-06-08T19:00:30.189Z,44.7
2016-06-08T19:01:30.161Z,44.79
2016-06-08T19:02:30.164Z,44.5
2016-06-08T19:03:30.152Z,44.5
2016-06-08T19:04:30.170Z,44.6
2016-06-08T19:05:30.173Z,44.89
2016-06-08T19:06:30.333Z,45.18
2016-06-08T19:07:30.180Z,45.25
2016-06-08T19:08:30.182Z,45.35
2016-06-08T19:09:30.185Z,45.64
2016-06-08T19:10:30.188Z,44.96
2016-06-08T19:11:30.192Z,44.79
2016-06-08T19:12:30.194Z,45.28
2016-06-08T19:13:30.197Z,45.83
2016-06-08T19:14:30.201Z,44.87
2016-06-08T19:15:30.220Z,44.21
2016-06-08T19:16:30.223Z,43.82
2016-06-08T19:17:30.382Z,44.33
2016-06-08T19:18:30.229Z,43.95
2016-06-08T19:19:30.248Z,43.37
2016-06-08T19:20:30.235Z,43.95
2016-06-08T19:21:30.238Z,44.04
2016-06-08T19:22:30.303Z,43.95
2016-06-08T19:23:30.307Z,44.6
2016-06-08T19:24:30.263Z,44.7
2016-06-08T19:25:30.266Z,45.08
2016-06-08T19:26:30.270Z,45.25
2016-06-08T19:27:30.288Z,44.77
2016-06-08T19:28:30.526Z,44.7
2016-06-08T19:29:30.293Z,45.18
2016-06-08T19:30:30.297Z,44.7
2016-06-08T19:31:30.581Z,44.57
2016-06-08T19:32:30.991Z,44.67
2016-06-08T19:33:30.322Z,44.31
2016-06-08T19:34:30.309Z,44.5
2016-06-08T19:35:30.328Z,44.7
2016-06-08T19:36:30.315Z,44.12
2016-06-08T19:37:30.334Z,44.79
2016-06-08T19:38:30.337Z,44.89
2016-06-08T19:39:30.590Z,44.87
2016-06-08T19:40:30.390Z,44.89
2016-06-08T19:41:30.346Z,45.08
2016-06-08T19:42:30.350Z,45.08
2016-06-08T19:43:30.368Z,44.79
2016-06-08T19:44:30.371Z,44.6
2016-06-08T19:45:30.374Z,44.31
2016-06-08T19:46:30.377Z,44.98
2016-06-08T19:47:30.240Z,44.4
2016-06-08T19:48:30.399Z,44.02
2016-06-08T19:49:30.402Z,44.43
2016-06-08T19:50:30.405Z,44.31
2016-06-08T19:51:30.425Z,44.13
2016-06-08T19:52:30.255Z,44.02
2016-06-08T19:53:30.415Z,43.92
2016-06-08T19:54:30.417Z,44.12
2016-06-08T19:55:30.420Z,44.12
2016-06-08T19:56:30.440Z,44.21
2016-06-08T19:57:30.552Z,44.12
2016-06-08T19:58:30.446Z,44.13
2016-06-08T19:59:30.449Z,44.31
2016-06-08T20:00:30.452Z,44.33
2016-06-08T20:01:30.548Z,44.33
2016-06-08T20:02:30.473Z,44.7
2016-06-08T20:03:30.477Z,44.31
2016-06-08T20:04:30.479Z,44.7
2016-06-08T20:05:30.468Z,44.89
2016-06-08T20:06:30.486Z,44.7
2016-06-08T20:07:30.488Z,44.31
2016-06-08T20:08:30.336Z,44.12
2016-06-08T20:09:30.495Z,44.12
2016-06-08T20:10:30.498Z,44.5
2016-06-08T20:11:30.532Z,43.92
2016-06-08T20:12:30.676Z,44.43
2016-06-08T20:13:30.523Z,44.13
2016-06-08T20:14:30.526Z,43.82
2016-06-08T20:15:30.529Z,43.37
2016-06-08T20:16:30.548Z,44.12
2016-06-08T20:17:31.160Z,44.6
2016-06-08T20:18:30.383Z,45.16
2016-06-08T20:19:30.557Z,45.06
2016-06-08T20:20:30.560Z,45.16
2016-06-08T20:21:30.579Z,44.87
2016-06-08T20:22:30.582Z,44.29
2016-06-08T20:23:30.975Z,44.77
2016-06-08T20:24:30.573Z,44.87
2016-06-08T20:25:30.576Z,44.02
2016-06-08T20:26:30.579Z,44.31
2016-06-08T20:27:30.582Z,45.16
2016-06-08T20:28:30.600Z,44.65
2016-06-08T20:29:30.448Z,45.91
2016-06-08T20:30:30.606Z,45.89
2016-06-08T20:31:30.750Z,45.33
2016-06-08T20:32:30.675Z,44.75
2016-06-08T20:33:30.615Z,45.33
2016-06-08T20:34:30.869Z,45.5
2016-06-08T20:35:30.622Z,45.14
2016-06-08T20:36:30.625Z,45.72
2016-06-08T20:37:30.628Z,45.81
2016-06-08T20:38:30.630Z,44.94
2016-06-08T20:39:30.634Z,45.23
2016-06-08T20:40:30.637Z,45.52
2016-06-08T20:41:30.656Z,45.04
2016-06-08T20:42:30.643Z,45.04
2016-06-08T20:43:30.662Z,44.94
2016-06-08T20:44:30.665Z,45.14
2016-06-08T20:45:30.871Z,45.04
2016-06-08T20:46:30.671Z,44.77
2016-06-08T20:47:30.518Z,45.33
2016-06-08T20:48:30.677Z,45.33
2016-06-08T20:49:30.681Z,45.52
2016-06-08T20:50:30.684Z,45.14
2016-06-08T20:51:30.687Z,45.59
2016-06-08T20:52:30.690Z,45.21
2016-06-08T20:53:30.708Z,45.23
2016-06-08T20:54:30.711Z,44.94
2016-06-08T20:55:30.700Z,44.56
2016-06-08T20:56:31.062Z,45.52
2016-06-08T20:57:30.549Z,45.69
2016-06-08T20:58:30.756Z,47.05
2016-06-08T20:59:30.712Z,46.64
2016-06-08T21:00:30.714Z,47.12
2016-06-08T21:01:30.717Z,46.37
2016-06-08T21:02:31.002Z,47.05
2016-06-08T21:03:30.739Z,48.08
2016-06-08T21:04:30.727Z,47.89
2016-06-08T21:05:30.730Z,48.08
2016-06-08T21:06:30.749Z,46.83
2016-06-08T21:07:31.298Z,45.98
2016-06-08T21:08:30.754Z,46.37
2016-06-08T21:09:31.102Z,45.81
2016-06-08T21:10:30.761Z,45.52
2016-06-08T21:11:30.764Z,45.23
2016-06-08T21:12:30.766Z,45.52
2016-06-08T21:13:30.786Z,45.42
2016-06-08T21:14:30.773Z,45.35
2016-06-08T21:15:30.776Z,46
2016-06-08T21:16:30.779Z,46.3
2016-06-08T21:17:30.782Z,47.14
2016-06-08T21:18:31.567Z,46.17
2016-06-08T21:19:30.788Z,46.2
2016-06-08T21:20:31.198Z,46.85
2016-06-08T21:21:30.794Z,47.05
2016-06-08T21:22:30.798Z,46.88
2016-06-08T21:23:30.817Z,46.27
2016-06-08T21:24:30.803Z,46.3
2016-06-08T21:25:30.807Z,47.05
2016-06-08T21:26:30.841Z,47.91
2016-06-08T21:27:30.813Z,48.08
2016-06-08T21:28:30.816Z,48.28
2016-06-08T21:29:31.632Z,48.74
2016-06-08T21:30:30.838Z,49.51
2016-06-08T21:31:31.341Z,49.02
2016-06-08T21:32:30.845Z,48.06
2016-06-08T21:33:30.847Z,48.08
2016-06-08T21:34:30.851Z,48.08
2016-06-08T21:35:30.854Z,48.35
2016-06-08T21:36:30.840Z,47.89
2016-06-08T21:37:31.016Z,48.16
2016-06-08T21:38:30.846Z,48.74
2016-06-08T21:39:30.866Z,48.16
2016-06-08T21:40:31.712Z,47.99
2016-06-08T21:41:30.888Z,48.18
2016-06-08T21:42:31.328Z,47.8
2016-06-08T21:43:30.878Z,48.54
2016-06-08T21:44:30.881Z,49.19
2016-06-08T21:45:30.884Z,48.35
2016-06-08T21:46:30.887Z,47.99
2016-06-08T21:47:30.906Z,48.64
2016-06-08T21:48:30.893Z,49.19
2016-06-08T21:49:30.897Z,48.9
2016-06-08T21:50:30.899Z,48.52
2016-06-08T21:51:31.653Z,49
2016-06-08T21:52:30.905Z,48.44
2016-06-08T21:53:31.361Z,48.61
2016-06-08T21:54:30.912Z,48.16
2016-06-08T21:55:30.759Z,49.12
2016-06-08T21:56:30.918Z,49.29
2016-06-08T21:57:30.921Z,48.71
2016-06-08T21:58:30.924Z,48.64
2016-06-08T21:59:30.927Z,49.39
2016-06-08T22:00:30.930Z,48.42
2016-06-08T22:01:30.934Z,48.25
2016-06-08T22:02:32.061Z,47.87
2016-06-08T22:03:30.956Z,48.08
2016-06-08T22:04:31.693Z,48.35
2016-06-08T22:05:30.789Z,48.93
2016-06-08T22:06:30.949Z,49.19
2016-06-08T22:07:30.951Z,48.54
2016-06-08T22:08:30.955Z,48.81
2016-06-08T22:09:30.958Z,47.58
2016-06-08T22:10:30.961Z,48.83
2016-06-08T22:11:30.964Z,49.12
2016-06-08T22:12:30.967Z,48.06
2016-06-08T22:13:31.815Z,47.89
2016-06-08T22:14:30.973Z,48.54
2016-06-08T22:15:32.148Z,48.52
2016-06-08T22:16:30.979Z,47.58
2016-06-08T22:17:30.983Z,48.16
2016-06-08T22:18:30.986Z,48.83
2016-06-08T22:19:31.004Z,48.52
2016-06-08T22:20:30.992Z,48.83
2016-06-08T22:21:30.994Z,48.71
2016-06-08T22:22:30.998Z,48.35
2016-06-08T22:23:31.001Z,48.64
2016-06-08T22:24:32.113Z,48.71
2016-06-08T22:25:31.007Z,49.77
2016-06-08T22:26:31.604Z,49.17
2016-06-08T22:27:31.013Z,49
2016-06-08T22:28:31.016Z,48.52
2016-06-08T22:29:31.067Z,48.71
2016-06-08T22:30:31.100Z,49.1
2016-06-08T22:31:31.026Z,48.71
2016-06-08T22:32:31.012Z,49.29
2016-06-08T22:33:31.095Z,49.46
2016-06-08T22:34:31.035Z,50.13
2016-06-08T22:35:32.132Z,49.07
2016-06-08T22:36:31.041Z,48.35
2016-06-08T22:37:32.013Z,48.93
2016-06-08T22:38:31.047Z,49
2016-06-08T22:39:31.066Z,48.81
2016-06-08T22:40:31.053Z,48.9
2016-06-08T22:41:31.057Z,47.65
2016-06-08T22:42:31.043Z,48.25
2016-06-08T22:43:31.063Z,47.41
2016-06-08T22:44:31.082Z,48.25
2016-06-08T22:45:31.068Z,47.6
2016-06-08T22:46:31.165Z,47.8
2016-06-08T22:47:31.075Z,47.48
2016-06-08T22:48:32.047Z,48.25
2016-06-08T22:49:31.081Z,48.06
2016-06-08T22:50:31.083Z,48.83
2016-06-08T22:51:31.087Z,48.83
2016-06-08T22:52:31.074Z,48.44
2016-06-08T22:53:31.077Z,49
2016-06-08T22:54:31.096Z,48.42
2016-06-08T22:55:30.943Z,48.44
2016-06-08T22:56:31.102Z,47.31
2016-06-08T22:57:31.418Z,47.8
2016-06-08T22:58:31.109Z,47.87
2016-06-08T22:59:31.112Z,48.06
2016-06-08T23:00:31.115Z,48.06
2016-06-08T23:01:31.102Z,47.58
2016-06-08T23:02:31.574Z,47.96
2016-06-08T23:03:31.124Z,48.25
2016-06-08T23:04:31.127Z,47.67
2016-06-08T23:05:31.130Z,47.29
2016-06-08T23:06:31.117Z,46.83
2016-06-08T23:07:31.136Z,46.83
2016-06-08T23:08:31.686Z,47.43
2016-06-08T23:09:31.142Z,49.02
2016-06-08T23:10:31.145Z,49.94
2016-06-08T23:11:31.148Z,49.94
2016-06-08T23:12:31.151Z,49.39
2016-06-08T23:13:31.155Z,49.75
2016-06-08T23:14:31.142Z,50.52
2016-06-08T23:15:31.145Z,50.98
2016-06-08T23:16:31.148Z,51.26
2016-06-08T23:17:31.167Z,50.88
2016-06-08T23:18:31.373Z,49.94
2016-06-08T23:19:31.798Z,49.65
2016-06-08T23:20:31.227Z,49.39
2016-06-08T23:21:31.266Z,49.58
2016-06-08T23:22:31.305Z,50.13
2016-06-08T23:23:31.345Z,50.49
2016-06-08T23:24:31.379Z,48.97
2016-06-08T23:25:31.380Z,47.94
2016-06-08T23:26:31.395Z,46.81
2016-06-08T23:27:31.411Z,46.73
2016-06-08T23:28:31.427Z,46.64
2016-06-08T23:29:31.592Z,46.34
2016-06-08T23:30:32.491Z,46.25
2016-06-08T23:31:31.467Z,46.47
2016-06-08T23:32:32.021Z,46.27
2016-06-08T23:33:31.482Z,46.15
2016-06-08T23:34:31.472Z,46.37
2016-06-08T23:35:31.477Z,46.08
2016-06-08T23:36:31.482Z,45.96
2016-06-08T23:37:31.487Z,45.79
2016-06-08T23:38:31.508Z,45.89
2016-06-08T23:39:31.511Z,45.89
2016-06-08T23:40:31.515Z,45.79
2016-06-08T23:41:33.534Z,45.21
2016-06-08T23:42:31.568Z,45.89
2016-06-08T23:43:31.619Z,45.31
2016-06-08T23:44:31.529Z,45.59
2016-06-08T23:45:31.532Z,45.59
2016-06-08T23:46:31.536Z,45.4
2016-06-08T23:47:31.539Z,45.69
2016-06-08T23:48:31.605Z,45.59
2016-06-08T23:49:31.546Z,45.59
2016-06-08T23:50:31.549Z,45.98
2016-06-08T23:51:31.567Z,45.89
2016-06-08T23:52:32.680Z,45.5
2016-06-08T23:53:31.558Z,45.59
2016-06-08T23:54:31.717Z,45.59
2016-06-08T23:55:31.580Z,45.31
2016-06-08T23:56:31.568Z,45.4
2016-06-08T23:57:31.586Z,44.73
2016-06-08T23:58:31.589Z,45.11
2016-06-08T23:59:31.593Z,45.11
